METAR Data
IDs: Format: Raw Decoded Include TAF

Data at: 0251 UTC 10 Dec 2022

METAR for:KLHQ (Lancaster/Fairfield, OH, US)
Text:KLHQ 100222Z AUTO 07006KT 9SM OVC030 06/04 A3013 RMK AO2 T00610044
Temperature: 6.1°C ( 43°F)
Dewpoint: 4.4°C ( 40°F) [RH = 89%]
Pressure (altimeter):30.13 inches Hg (1020.4 mb)
Winds:from the ENE (70 degrees) at 7 MPH (6 knots; 3.1 m/s)
Visibility: 9 sm ( 14 km)
Ceiling:3000 feet AGL
Clouds: overcast cloud deck at 3000 feet AGL
QC Flag:automated observation with no human augmentation